Time;durP1;ratioP1;P1;durP2;ratioP2;P2;SDS_P1;SDS_P2;PMS_P1;PMS_P2;Temp;Humidity;BMP_temperature;BMP_pressure;BME280_temperature;BME280_humidity;BME280_pressure;Samples;Min_cycle;Max_cycle;Signal;HPM_P1;HPM_P2
2022/06/29 00:00:26;;;;;;;3.88;2.10;;;;;;;24.65;48.70;99752.63;4993595;28;20042;-87
2022/06/29 00:02:53;;;;;;;5.72;2.22;;;;;;;24.66;48.60;99748.03;4999710;28;20050;-88
2022/06/29 00:05:21;;;;;;;7.65;2.45;;;;;;;24.65;48.59;99751.78;4968668;28;20131;-88
2022/06/29 00:07:48;;;;;;;6.10;2.70;;;;;;;24.67;48.79;99752.38;4995403;28;20046;-88
2022/06/29 00:10:16;;;;;;;2.30;2.10;;;;;;;24.66;48.96;99753.47;4984440;28;20038;-88
2022/06/29 00:12:44;;;;;;;3.38;2.22;;;;;;;24.66;49.47;99750.75;4967107;28;20046;-86
2022/06/29 00:15:12;;;;;;;2.30;2.10;;;;;;;24.65;49.41;99746.34;4983589;28;20038;-88
2022/06/29 00:17:38;;;;;;;7.47;2.25;;;;;;;24.64;49.41;99744.72;4988267;28;20393;-88
2022/06/29 00:20:07;;;;;;;2.85;2.22;;;;;;;24.65;49.70;99740.91;4970359;28;20039;-88
2022/06/29 00:22:35;;;;;;;3.75;2.10;;;;;;;24.62;49.55;99741.38;4983625;28;20153;-87
2022/06/29 00:25:03;;;;;;;4.85;2.60;;;;;;;24.62;49.47;99744.09;4966791;28;20085;-88
2022/06/29 00:27:30;;;;;;;2.17;1.98;;;;;;;24.61;49.48;99743.28;4980234;28;20046;-87
2022/06/29 00:29:56;;;;;;;1.95;1.85;;;;;;;24.61;49.49;99734.31;4997744;28;20175;-88
2022/06/29 00:32:23;;;;;;;18.45;2.40;;;;;;;24.60;49.21;99732.63;4982064;28;20508;-88
2022/06/29 00:34:50;;;;;;;4.53;2.20;;;;;;;24.58;49.71;99730.16;4981395;28;20104;-88
2022/06/29 00:37:16;;;;;;;3.05;2.10;;;;;;;24.57;49.69;99727.69;4973747;28;20088;-87
2022/06/29 00:44:33;;;;;;;4.43;2.63;;;;;;;24.54;49.20;99726.25;4992782;28;20091;-88
2022/06/29 00:47:02;;;;;;;5.07;2.28;;;;;;;24.53;49.49;99721.88;4993858;28;20057;-82
2022/06/29 00:49:30;;;;;;;3.85;2.47;;;;;;;24.54;49.44;99722.72;4968430;28;20508;-80
2022/06/29 00:52:08;;;;;;;4.97;2.28;;;;;;;24.50;50.01;99722.34;4962364;28;20116;-76
2022/06/29 00:54:46;;;;;;;6.72;2.70;;;;;;;24.49;49.83;99720.69;4963873;28;20089;-81
2022/06/29 00:57:21;;;;;;;4.05;2.50;;;;;;;24.47;49.26;99720.94;4935988;28;20159;-81
2022/06/29 00:59:50;;;;;;;2.67;2.47;;;;;;;24.41;49.40;99727.22;4996915;28;20061;-81
2022/06/29 01:02:19;;;;;;;8.32;3.28;;;;;;;24.35;49.27;99719.16;4962982;28;20050;-80
2022/06/29 01:04:47;;;;;;;4.03;2.17;;;;;;;24.30;49.29;99719.00;4981982;28;20046;-80
2022/06/29 01:07:16;;;;;;;2.60;2.30;;;;;;;24.30;49.33;99717.16;4980159;28;20129;-80
2022/06/29 01:09:43;;;;;;;3.90;2.80;;;;;;;24.31;49.66;99712.56;4994499;28;20049;-80
2022/06/29 01:12:10;;;;;;;5.32;2.60;;;;;;;24.30;49.86;99719.88;4951263;28;20046;-80
2022/06/29 01:14:39;;;;;;;3.53;2.10;;;;;;;24.28;49.81;99708.41;4957916;28;20057;-80
2022/06/29 01:17:05;;;;;;;4.68;2.30;;;;;;;24.26;50.05;99710.50;4981493;28;20060;-81
2022/06/29 01:19:32;;;;;;;2.90;2.35;;;;;;;24.25;49.84;99719.72;4983502;28;20046;-80
2022/06/29 01:22:07;;;;;;;4.65;2.30;;;;;;;24.23;49.93;99719.94;4976269;28;20049;-81
2022/06/29 01:24:34;;;;;;;4.68;2.25;;;;;;;24.25;50.24;99720.53;4964569;28;20634;-81
2022/06/29 01:27:01;;;;;;;3.15;2.40;;;;;;;24.25;50.04;99709.69;4982484;28;20053;-80
2022/06/29 01:29:29;;;;;;;4.32;2.20;;;;;;;24.25;49.97;99709.69;4982551;28;20069;-80
2022/06/29 01:31:56;;;;;;;7.07;2.40;;;;;;;24.22;49.88;99709.31;4974013;28;20054;-80
2022/06/29 01:34:23;;;;;;;2.10;1.90;;;;;;;24.22;49.77;99712.00;4977741;28;20057;-80
2022/06/29 01:36:50;;;;;;;6.00;2.50;;;;;;;24.21;49.73;99710.38;4979183;28;20445;-81
2022/06/29 01:39:17;;;;;;;2.45;2.28;;;;;;;24.19;49.94;99710.59;4978480;28;20166;-81
2022/06/29 01:46:33;;;;;;;3.90;2.42;;;;;;;24.17;50.20;99712.72;4993463;28;20550;-87
2022/06/29 01:49:00;;;;;;;5.18;2.20;;;;;;;24.17;50.20;99718.16;4984548;28;20358;-88
2022/06/29 01:51:26;;;;;;;2.38;2.17;;;;;;;24.16;50.44;99708.34;4987541;28;20049;-87
2022/06/29 01:54:18;;;;;;;2.60;1.90;;;;;;;24.13;50.94;99713.41;4985673;28;20092;-87
2022/06/29 01:56:45;;;;;;;5.93;2.35;;;;;;;24.14;50.82;99707.72;4972424;28;20050;-87
2022/06/29 01:59:12;;;;;;;2.30;2.10;;;;;;;24.14;50.63;99709.63;4983895;28;20038;-87
2022/06/29 02:01:39;;;;;;;2.35;2.00;;;;;;;24.13;50.67;99708.78;4985080;28;20034;-87
2022/06/29 02:04:06;;;;;;;2.63;2.20;;;;;;;24.12;50.85;99704.44;4986043;28;20042;-87
2022/06/29 02:07:23;;;;;;;6.50;2.78;;;;;;;24.09;51.41;99702.16;4991222;28;20044;-87
2022/06/29 02:09:49;;;;;;;5.43;2.30;;;;;;;24.11;50.89;99699.22;4956144;28;20508;-88
2022/06/29 02:12:16;;;;;;;2.30;2.03;;;;;;;24.09;50.94;99690.47;4965837;28;20493;-87
2022/06/29 02:14:43;;;;;;;4.05;2.33;;;;;;;24.10;50.92;99695.69;4996512;28;20493;-86
2022/06/29 02:17:10;;;;;;;5.95;2.30;;;;;;;24.10;50.75;99695.69;4997025;28;20494;-76
2022/06/29 02:19:37;;;;;;;2.92;2.50;;;;;;;24.09;50.62;99699.44;4964286;28;20072;-76
2022/06/29 02:22:03;;;;;;;2.25;2.05;;;;;;;24.09;50.52;99688.59;4956276;28;20045;-80
2022/06/29 02:24:30;;;;;;;3.80;2.53;;;;;;;24.12;50.79;99684.59;4969041;28;20048;-80
2022/06/29 02:26:57;;;;;;;2.97;2.53;;;;;;;24.11;50.66;99689.19;4959226;28;20054;-80
2022/06/29 02:29:24;;;;;;;2.30;2.00;;;;;;;24.06;50.57;99683.63;4995481;28;20513;-80
2022/06/29 02:34:46;;;;;;;3.05;2.33;;;;;;;24.07;50.42;99674.47;4964868;28;20097;-81
2022/06/29 02:37:14;;;;;;;4.13;2.17;;;;;;;24.05;50.64;99681.97;4984934;28;20042;-80
2022/06/29 02:39:44;;;;;;;3.65;2.25;;;;;;;24.05;50.56;99682.81;4984499;28;20569;-80
2022/06/29 02:42:12;;;;;;;2.50;2.30;;;;;;;24.04;50.59;99688.44;4996303;28;20362;-80
2022/06/29 02:44:39;;;;;;;2.85;2.40;;;;;;;24.03;50.52;99681.38;4988990;28;20038;-88
2022/06/29 02:47:07;;;;;;;4.72;2.13;;;;;;;24.02;50.67;99679.75;4996837;28;20068;-86
2022/06/29 02:49:34;;;;;;;5.90;2.20;;;;;;;24.01;50.65;99681.59;4985236;28;20037;-81
2022/06/29 02:52:01;;;;;;;2.58;2.38;;;;;;;24.02;50.87;99682.44;4984584;28;20045;-81
2022/06/29 02:54:27;;;;;;;2.55;2.30;;;;;;;24.02;51.14;99674.31;4996284;28;20046;-81
2022/06/29 02:56:54;;;;;;;3.25;2.20;;;;;;;24.02;51.27;99685.16;4976553;28;20552;-81
2022/06/29 02:59:22;;;;;;;3.40;2.00;;;;;;;24.01;51.21;99687.03;4986780;28;21293;-82
2022/06/29 03:01:48;;;;;;;3.53;2.28;;;;;;;24.02;51.25;99687.88;4981840;28;20478;-81
2022/06/29 03:04:15;;;;;;;3.35;2.67;;;;;;;24.02;50.95;99685.16;4951102;28;20046;-76
2022/06/29 03:06:42;;;;;;;3.63;2.30;;;;;;;24.00;51.33;99679.94;4957548;28;20046;-76
2022/06/29 03:09:09;;;;;;;2.30;2.00;;;;;;;24.00;51.06;99682.66;4970306;28;20191;-79
2022/06/29 03:11:35;;;;;;;2.88;2.10;;;;;;;23.96;50.95;99680.63;4954929;28;20049;-79
2022/06/29 03:14:03;;;;;;;3.30;1.80;;;;;;;23.94;50.80;99686.28;4984832;28;20046;-82
2022/06/29 03:16:30;;;;;;;2.72;2.08;;;;;;;23.94;50.71;99682.72;4969759;28;20078;-81
2022/06/29 03:18:57;;;;;;;3.05;2.00;;;;;;;23.93;50.26;99678.38;4969865;28;20038;-81
2022/06/29 03:21:24;;;;;;;4.18;2.65;;;;;;;23.92;49.84;99674.03;4958784;28;20390;-81
2022/06/29 03:23:51;;;;;;;2.38;2.05;;;;;;;23.90;49.79;99674.22;4972892;28;20462;-82
2022/06/29 03:26:18;;;;;;;2.17;2.00;;;;;;;23.89;49.73;99675.31;4948877;28;20125;-82
2022/06/29 03:28:52;;;;;;;10.60;2.58;;;;;;;23.88;49.65;99672.81;4974892;28;20050;-81
2022/06/29 03:31:20;;;;;;;3.05;2.80;;;;;;;23.87;49.59;99673.88;4979147;28;20038;-81
2022/06/29 03:33:46;;;;;;;3.55;2.40;;;;;;;23.85;49.27;99663.25;4971136;28;20050;-79
2022/06/29 03:36:13;;;;;;;5.05;2.25;;;;;;;23.83;49.03;99662.63;4982922;28;20038;-79
2022/06/29 03:38:40;;;;;;;4.28;2.88;;;;;;;23.81;48.55;99665.59;4953987;28;20099;-79
2022/06/29 03:41:09;;;;;;;2.70;2.40;;;;;;;23.79;48.96;99661.44;4962239;28;20042;-79
2022/06/29 03:43:36;;;;;;;4.43;2.55;;;;;;;23.79;49.08;99659.56;4977257;28;20045;-79
2022/06/29 03:46:02;;;;;;;7.97;2.67;;;;;;;23.80;48.88;99657.66;4955409;28;20046;-82
2022/06/29 03:48:29;;;;;;;3.50;2.40;;;;;;;23.76;48.55;99659.16;4981503;28;20047;-81
2022/06/29 03:50:56;;;;;;;4.05;2.47;;;;;;;23.76;49.02;99664.59;4987488;28;20525;-81
2022/06/29 03:53:22;;;;;;;4.10;2.45;;;;;;;23.81;49.76;99671.00;4984146;28;20050;-81
2022/06/29 03:55:49;;;;;;;5.75;2.50;;;;;;;23.84;49.62;99667.00;4963742;28;20065;-79
2022/06/29 03:58:16;;;;;;;3.40;2.45;;;;;;;23.86;49.30;99664.06;4993156;28;20042;-79
2022/06/29 04:00:43;;;;;;;3.88;2.78;;;;;;;23.87;49.59;99666.56;4980537;28;20065;-80
2022/06/29 04:03:09;;;;;;;4.32;3.00;;;;;;;23.94;48.58;99669.16;4991554;28;20126;-80
2022/06/29 04:05:36;;;;;;;5.18;2.92;;;;;;;23.95;48.38;99660.81;4993412;28;20051;-79
2022/06/29 04:08:03;;;;;;;3.17;2.88;;;;;;;23.95;49.03;99658.09;4978023;28;20050;-81
2022/06/29 04:10:30;;;;;;;5.75;3.05;;;;;;;23.90;48.80;99649.81;4986557;28;20661;-85
2022/06/29 04:12:57;;;;;;;3.17;2.97;;;;;;;23.88;48.14;99649.22;4978270;28;20064;-85
2022/06/29 04:15:25;;;;;;;3.42;2.97;;;;;;;23.84;48.10;99653.47;4952044;28;20042;-85
2022/06/29 04:17:51;;;;;;;4.85;3.17;;;;;;;23.87;48.62;99644.88;4963436;28;20046;-83
2022/06/29 04:23:03;;;;;;;5.38;2.92;;;;;;;23.89;49.38;99652.75;4980750;28;20050;-84
2022/06/29 04:25:30;;;;;;;4.85;3.00;;;;;;;23.88;49.32;99646.50;4974601;28;20044;-84
2022/06/29 04:27:57;;;;;;;3.15;2.85;;;;;;;23.84;49.28;99645.31;4993600;28;20053;-84
2022/06/29 04:30:23;;;;;;;4.93;2.70;;;;;;;23.83;48.99;99646.34;4975779;28;20042;-83
2022/06/29 04:32:50;;;;;;;5.55;3.28;;;;;;;23.83;49.59;99644.47;4964114;28;20481;-84
2022/06/29 04:35:17;;;;;;;5.05;3.03;;;;;;;23.82;49.97;99647.44;4959967;28;20042;-84
2022/06/29 04:37:44;;;;;;;2.50;2.30;;;;;;;23.81;49.71;99643.03;4980489;28;20049;-84
2022/06/29 04:40:11;;;;;;;5.43;3.22;;;;;;;23.81;49.74;99643.03;4998232;28;20128;-80
2022/06/29 04:42:37;;;;;;;3.40;3.10;;;;;;;23.81;49.99;99649.31;4964995;28;20042;-80
2022/06/29 04:45:05;;;;;;;4.68;2.75;;;;;;;23.73;47.89;99648.78;4969783;28;20437;-80
2022/06/29 04:47:31;;;;;;;6.25;3.33;;;;;;;23.80;48.32;99658.50;4987540;28;20058;-82
2022/06/29 04:49:58;;;;;;;4.25;3.22;;;;;;;23.89;47.85;99655.47;4985814;28;20049;-83
2022/06/29 04:52:25;;;;;;;4.78;3.10;;;;;;;23.94;48.21;99651.03;4947508;28;20129;-80
2022/06/29 04:55:19;;;;;;;6.20;2.92;;;;;;;23.94;48.76;99648.31;4978787;28;20410;-80
2022/06/29 04:57:46;;;;;;;3.38;3.08;;;;;;;23.98;48.89;99644.09;4972333;28;20049;-80
2022/06/29 05:00:13;;;;;;;3.17;2.97;;;;;;;24.02;49.01;99636.34;4976570;28;20074;-80
2022/06/29 05:02:40;;;;;;;4.88;3.20;;;;;;;24.04;49.39;99642.34;4981399;28;20050;-80
2022/06/29 05:05:07;;;;;;;4.03;3.25;;;;;;;24.03;47.86;99638.81;4979206;28;20050;-81
2022/06/29 05:07:34;;;;;;;3.20;2.90;;;;;;;24.08;48.62;99637.31;4946944;28;20057;-85
2022/06/29 05:10:01;;;;;;;4.18;3.20;;;;;;;24.18;49.37;99648.44;4994717;28;20046;-84
2022/06/29 05:12:28;;;;;;;3.40;3.05;;;;;;;24.24;48.43;99645.59;4984393;28;20045;-84
2022/06/29 05:14:55;;;;;;;4.43;3.42;;;;;;;24.16;47.18;99648.66;4982458;28;20109;-84
2022/06/29 05:17:22;;;;;;;5.88;3.60;;;;;;;24.21;47.04;99648.78;4978201;28;20665;-84
2022/06/29 05:19:48;;;;;;;4.35;3.70;;;;;;;24.30;48.39;99643.88;4969705;28;20053;-82
2022/06/29 05:22:15;;;;;;;3.72;3.25;;;;;;;24.42;47.65;99643.91;4987476;28;20121;-80
2022/06/29 05:28:47;;;;;;;5.97;3.92;;;;;;;24.38;46.21;99648.97;4956066;28;20041;-84
2022/06/29 05:31:14;;;;;;;5.80;3.70;;;;;;;24.41;46.25;99656.66;4971773;28;20673;-83
2022/06/29 05:33:41;;;;;;;7.32;4.47;;;;;;;24.44;45.96;99650.75;4966404;28;20042;-84
2022/06/29 05:36:09;;;;;;;5.95;4.05;;;;;;;24.45;45.71;99652.47;4956160;28;20038;-84
2022/06/29 05:38:37;;;;;;;6.53;4.45;;;;;;;24.46;45.58;99656.81;4999055;28;20374;-84
2022/06/29 05:41:04;;;;;;;5.50;4.80;;;;;;;24.49;46.34;99658.25;4988640;28;20497;-80
2022/06/29 05:43:31;;;;;;;5.07;4.50;;;;;;;24.52;46.14;99662.38;4989826;28;20129;-84
2022/06/29 05:45:58;;;;;;;5.50;4.45;;;;;;;24.46;45.88;99659.53;4977654;28;20738;-84
2022/06/29 05:48:25;;;;;;;4.47;4.07;;;;;;;24.45;45.62;99657.91;4981605;28;20050;-84
2022/06/29 05:50:52;;;;;;;5.40;4.40;;;;;;;24.51;45.91;99661.56;4997678;28;20062;-84
2022/06/29 05:53:19;;;;;;;10.25;5.28;;;;;;;24.56;46.08;99664.41;4977373;28;20050;-84
2022/06/29 05:55:46;;;;;;;4.90;4.35;;;;;;;24.59;46.12;99665.84;4984440;28;20054;-84
2022/06/29 05:58:18;;;;;;;5.65;4.32;;;;;;;24.54;46.35;99665.72;4996835;28;20046;-83
2022/06/29 06:00:46;;;;;;;4.78;4.22;;;;;;;24.56;46.07;99669.84;4972502;28;20048;-85
2022/06/29 06:03:13;;;;;;;6.90;4.43;;;;;;;24.55;46.13;99670.06;4989357;28;20050;-84
2022/06/29 06:05:40;;;;;;;4.30;3.97;;;;;;;24.59;46.47;99669.38;4985039;28;20043;-83
2022/06/29 06:08:06;;;;;;;5.95;4.60;;;;;;;24.60;46.14;99667.47;4986796;28;20061;-80
2022/06/29 06:10:34;;;;;;;5.30;4.80;;;;;;;24.62;45.66;99655.31;4997458;28;20042;-83
2022/06/29 06:13:02;;;;;;;5.93;4.57;;;;;;;24.65;45.67;99657.59;4978293;28;20505;-84
2022/06/29 06:15:29;;;;;;;7.10;4.97;;;;;;;24.69;46.59;99655.25;4972662;28;20045;-82
2022/06/29 06:17:55;;;;;;;5.95;4.70;;;;;;;24.69;46.50;99669.63;4981198;28;20050;-80
2022/06/29 06:20:22;;;;;;;8.75;4.68;;;;;;;24.71;46.91;99653.13;4983978;28;20050;-80
2022/06/29 06:22:49;;;;;;;6.18;4.75;;;;;;;24.76;46.94;99664.13;5002739;28;20535;-80
2022/06/29 06:25:16;;;;;;;6.32;4.55;;;;;;;24.81;46.67;99650.66;4981623;28;20133;-80
2022/06/29 06:27:42;;;;;;;5.03;4.63;;;;;;;24.84;46.56;99642.03;4982251;28;20064;-81
2022/06/29 06:30:10;;;;;;;4.85;4.45;;;;;;;24.94;46.85;99648.81;5000702;28;20042;-80
2022/06/29 06:32:36;;;;;;;6.85;4.95;;;;;;;24.98;46.95;99642.63;4956594;28;20038;-80
2022/06/29 06:35:03;;;;;;;5.18;4.60;;;;;;;25.04;47.23;99641.72;4977430;28;20092;-81
2022/06/29 06:37:30;;;;;;;10.00;5.15;;;;;;;25.08;47.29;99642.88;4954971;28;20132;-80
2022/06/29 06:42:47;;;;;;;6.50;5.20;;;;;;;25.08;47.27;99633.91;4913831;28;20120;-86
2022/06/29 06:45:14;;;;;;;5.78;5.28;;;;;;;25.05;47.15;99631.66;4980748;28;20038;-83
2022/06/29 06:47:41;;;;;;;9.18;5.47;;;;;;;25.10;46.95;99635.31;4970914;28;20054;-86
2022/06/29 06:50:08;;;;;;;5.47;4.97;;;;;;;25.10;47.67;99637.22;4981824;28;20049;-85
2022/06/29 06:52:35;;;;;;;6.55;5.57;;;;;;;25.12;47.40;99649.50;4948356;28;20054;-84
2022/06/29 06:55:01;;;;;;;9.05;6.60;;;;;;;25.05;47.46;99639.81;4983282;28;20101;-85
2022/06/29 06:57:28;;;;;;;7.35;5.72;;;;;;;25.13;47.93;99650.34;4951548;28;20049;-84
2022/06/29 06:59:55;;;;;;;6.28;5.68;;;;;;;25.15;47.62;99647.38;4962033;28;20054;-85
2022/06/29 07:02:22;;;;;;;6.60;5.60;;;;;;;25.16;48.00;99649.03;4961816;28;20141;-84
2022/06/29 07:04:49;;;;;;;6.50;5.90;;;;;;;25.24;48.64;99649.56;4998784;28;20042;-86
2022/06/29 07:07:15;;;;;;;5.93;5.32;;;;;;;25.26;48.29;99650.13;4982442;28;20083;-87
2022/06/29 07:09:42;;;;;;;7.72;5.68;;;;;;;25.31;47.76;99650.25;4963516;28;20057;-84
2022/06/29 07:12:09;;;;;;;6.15;5.55;;;;;;;25.32;48.38;99649.19;4969149;28;20053;-85
2022/06/29 07:14:36;;;;;;;6.55;5.95;;;;;;;25.38;48.31;99646.59;4969541;28;20046;-84
2022/06/29 07:17:03;;;;;;;6.85;6.15;;;;;;;25.41;48.66;99646.09;4969673;28;20045;-84
2022/06/29 07:19:29;;;;;;;6.80;6.13;;;;;;;25.40;49.28;99639.84;4970416;28;20054;-84
2022/06/29 07:21:56;;;;;;;7.25;6.40;;;;;;;25.45;48.93;99639.16;4974122;28;20069;-85
2022/06/29 07:24:23;;;;;;;7.45;6.65;;;;;;;25.46;48.79;99636.16;4980431;28;20049;-84
2022/06/29 07:26:50;;;;;;;8.25;6.18;;;;;;;25.45;48.32;99634.53;4994981;28;20042;-81
2022/06/29 07:29:16;;;;;;;6.80;6.10;;;;;;;25.41;49.04;99640.69;4946480;28;20481;-85
2022/06/29 07:31:43;;;;;;;7.55;6.07;;;;;;;25.39;49.29;99635.50;4984042;28;20049;-84
2022/06/29 07:34:10;;;;;;;8.02;6.28;;;;;;;25.33;49.51;99639.97;4988075;28;20939;-84
2022/06/29 07:36:37;;;;;;;6.78;5.80;;;;;;;25.39;49.55;99640.94;4994208;28;20046;-85
2022/06/29 07:39:03;;;;;;;9.60;7.00;;;;;;;25.43;49.72;99641.28;4975940;28;20129;-84
2022/06/29 07:41:30;;;;;;;9.30;6.30;;;;;;;25.52;49.53;99637.13;4978877;28;20050;-83
2022/06/29 07:43:57;;;;;;;7.45;6.20;;;;;;;25.52;49.65;99634.41;4978609;28;20048;-85
2022/06/29 07:46:24;;;;;;;8.25;6.32;;;;;;;25.51;49.56;99632.75;4975863;28;20056;-81
2022/06/29 07:48:50;;;;;;;7.60;6.45;;;;;;;25.46;49.86;99629.91;4966294;28;20100;-81
2022/06/29 07:51:17;;;;;;;7.03;6.40;;;;;;;25.49;49.91;99626.72;4951861;28;20394;-80
2022/06/29 07:53:44;;;;;;;6.78;6.18;;;;;;;25.56;50.09;99630.94;4963989;28;20047;-80
2022/06/29 07:56:11;;;;;;;7.53;6.78;;;;;;;25.54;50.07;99624.09;4982702;28;20061;-81
2022/06/29 07:58:38;;;;;;;7.30;6.47;;;;;;;25.58;50.08;99632.63;4982187;28;20045;-80
2022/06/29 08:01:04;;;;;;;8.57;6.75;;;;;;;25.61;50.23;99632.13;4949593;28;20706;-84
2022/06/29 08:03:31;;;;;;;8.98;6.20;;;;;;;25.63;50.55;99628.13;4962970;28;20050;-84
2022/06/29 08:05:59;;;;;;;8.45;6.35;;;;;;;25.74;50.32;99629.97;4996564;28;20052;-84
2022/06/29 08:08:26;;;;;;;6.47;5.88;;;;;;;25.69;49.96;99635.31;4970248;28;20046;-84
2022/06/29 08:15:17;;;;;;;9.13;6.13;;;;;;;25.83;49.87;99618.75;4954611;28;20030;-81
2022/06/29 08:18:07;;;;;;;6.35;5.43;;;;;;;25.82;50.39;99623.31;4936064;28;20049;-81
2022/06/29 08:20:38;;;;;;;7.30;5.38;;;;;;;25.88;49.89;99618.88;4970470;28;20073;-85
2022/06/29 08:23:05;;;;;;;5.88;5.38;;;;;;;25.91;50.17;99621.09;4994037;28;20100;-83
2022/06/29 08:25:32;;;;;;;9.38;6.43;;;;;;;25.91;49.86;99621.09;4965970;28;20056;-85
2022/06/29 08:28:01;;;;;;;6.60;5.68;;;;;;;25.94;49.89;99623.34;4966633;28;20064;-85
2022/06/29 08:30:28;;;;;;;6.68;5.53;;;;;;;25.92;49.92;99617.31;4952668;28;20573;-85
2022/06/29 08:32:55;;;;;;;8.43;5.78;;;;;;;25.99;50.16;99624.25;4970241;28;20057;-83
2022/06/29 08:35:21;;;;;;;7.00;6.30;;;;;;;26.02;49.92;99613.97;4977580;28;20048;-85
2022/06/29 08:37:50;;;;;;;6.60;5.90;;;;;;;25.98;50.07;99611.72;4969641;28;20488;-81
2022/06/29 08:40:17;;;;;;;6.65;5.50;;;;;;;25.98;50.54;99614.44;4978767;28;20045;-81
2022/06/29 08:42:47;;;;;;;6.10;5.35;;;;;;;26.01;50.64;99612.31;4969618;28;20038;-81
2022/06/29 08:45:15;;;;;;;7.78;5.90;;;;;;;26.06;50.50;99620.59;4982691;28;20099;-81
2022/06/29 08:47:42;;;;;;;5.93;5.30;;;;;;;26.12;50.44;99614.97;4949611;28;20208;-85
2022/06/29 08:50:10;;;;;;;6.72;6.10;;;;;;;26.14;50.57;99615.56;4982287;28;20507;-84
2022/06/29 08:52:39;;;;;;;6.00;5.40;;;;;;;26.18;50.59;99614.03;4979549;28;20076;-85
2022/06/29 08:55:07;;;;;;;6.95;6.22;;;;;;;26.18;50.56;99624.91;4991549;28;20557;-85
2022/06/29 08:57:39;;;;;;;7.72;5.30;;;;;;;26.11;51.14;99620.69;4976739;28;20076;-85
2022/06/29 09:00:08;;;;;;;6.88;5.05;;;;;;;26.14;50.58;99625.63;4977209;28;20133;-85
2022/06/29 09:02:35;;;;;;;5.32;4.90;;;;;;;26.09;51.07;99615.47;4983847;28;20049;-86
2022/06/29 09:05:03;;;;;;;6.50;4.82;;;;;;;26.11;51.12;99618.78;4960659;28;20046;-86
2022/06/29 09:07:30;;;;;;;6.75;4.70;;;;;;;26.13;51.17;99621.25;4984429;28;20058;-83
2022/06/29 09:10:06;;;;;;;10.25;5.35;;;;;;;26.13;51.41;99618.50;4984155;28;20555;-85
2022/06/29 09:12:33;;;;;;;6.03;5.07;;;;;;;26.17;50.87;99620.50;4936983;28;20501;-82
2022/06/29 09:15:01;;;;;;;6.28;5.00;;;;;;;26.18;50.93;99615.91;4971500;28;20045;-81
2022/06/29 09:22:06;;;;;;;5.22;4.72;;;;;;;26.19;50.54;99612.94;4974756;28;20692;-81
2022/06/29 09:24:33;;;;;;;8.10;5.88;;;;;;;26.22;50.73;99603.47;4974160;28;20054;-84
2022/06/29 09:27:23;;;;;;;6.05;5.07;;;;;;;26.20;50.97;99606.44;4925858;28;20046;-85
2022/06/29 09:29:50;;;;;;;6.38;5.78;;;;;;;26.25;51.43;99597.53;4989480;28;20506;-85
2022/06/29 09:32:19;;;;;;;7.90;6.80;;;;;;;26.28;51.73;99597.06;4977271;28;20117;-85
2022/06/29 09:34:47;;;;;;;8.52;5.93;;;;;;;26.29;51.76;99598.69;4978470;28;20049;-85
2022/06/29 09:37:15;;;;;;;6.60;5.50;;;;;;;26.27;52.25;99608.19;4996185;28;20077;-84
2022/06/29 09:39:41;;;;;;;6.72;5.40;;;;;;;26.31;51.42;99602.00;4993457;28;20042;-85
2022/06/29 09:42:13;;;;;;;8.52;5.85;;;;;;;26.37;51.63;99605.63;4995664;28;20489;-85
2022/06/29 09:44:41;;;;;;;9.20;6.55;;;;;;;26.43;51.84;99604.66;4979897;28;20045;-85
2022/06/29 09:47:15;;;;;;;8.20;6.47;;;;;;;26.47;52.40;99610.44;4966239;28;20552;-85
2022/06/29 09:49:49;;;;;;;8.27;5.93;;;;;;;26.52;51.89;99608.66;4960488;28;20048;-84
2022/06/29 09:52:15;;;;;;;9.32;6.57;;;;;;;26.56;52.03;99608.97;4958195;28;20042;-83
2022/06/29 09:54:47;;;;;;;9.75;6.38;;;;;;;26.55;51.68;99610.88;4951728;28;20046;-83
2022/06/29 09:57:15;;;;;;;8.35;6.32;;;;;;;26.55;50.95;99602.72;4963222;28;20047;-83
2022/06/29 10:04:14;;;;;;;7.50;5.85;;;;;;;26.72;51.44;99594.56;4968624;28;20089;-82
2022/06/29 10:06:42;;;;;;;6.82;6.15;;;;;;;26.75;51.32;99591.34;4975709;28;20085;-86
2022/06/29 10:09:09;;;;;;;12.90;6.57;;;;;;;26.76;51.34;99592.97;4954196;28;20101;-85
2022/06/29 10:15:00;;;;;;;11.30;6.18;;;;;;;26.68;51.32;99601.56;4952968;28;20141;-85
2022/06/29 10:17:40;;;;;;;6.35;5.60;;;;;;;26.72;50.27;99596.47;4986762;28;20054;-85
2022/06/29 10:20:26;;;;;;;6.78;6.10;;;;;;;26.63;50.52;99587.88;4955386;28;20046;-85
2022/06/29 10:22:53;;;;;;;7.45;6.07;;;;;;;26.62;50.41;99588.94;4978530;28;20060;-85
2022/06/29 10:25:27;;;;;;;7.07;6.38;;;;;;;26.53;51.17;99587.69;4944470;28;20076;-85
2022/06/29 10:28:07;;;;;;;6.28;5.70;;;;;;;26.53;51.74;99584.97;4970294;28;20049;-86
2022/06/29 10:30:34;;;;;;;8.23;6.03;;;;;;;26.65;51.39;99587.63;4994065;28;20053;-85
2022/06/29 10:33:29;;;;;;;6.68;5.63;;;;;;;26.68;51.89;99584.41;4984893;28;20521;-83
2022/06/29 10:36:06;;;;;;;7.38;6.45;;;;;;;26.80;51.96;99577.78;4928872;28;20052;-83
2022/06/29 10:38:49;;;;;;;6.85;5.70;;;;;;;26.85;51.63;99585.22;4947986;28;20377;-83
2022/06/29 10:44:05;;;;;;;6.97;6.07;;;;;;;26.95;51.96;99573.66;4953667;28;20042;-81
2022/06/29 10:46:54;;;;;;;7.32;5.53;;;;;;;26.88;51.29;99576.56;4937385;28;20620;-83
2022/06/29 10:49:21;;;;;;;6.07;5.28;;;;;;;26.96;51.42;99570.69;4983973;28;20042;-83
2022/06/29 10:51:50;;;;;;;6.60;5.97;;;;;;;27.03;51.39;99576.78;4973443;28;20069;-84
2022/06/29 10:54:22;;;;;;;8.68;5.80;;;;;;;27.06;51.37;99578.19;4962509;28;20474;-84
2022/06/29 10:56:50;;;;;;;6.57;5.75;;;;;;;27.14;51.27;99582.38;4978498;28;20042;-83
2022/06/29 10:59:33;;;;;;;7.30;6.22;;;;;;;26.95;51.44;99579.13;4965061;28;20133;-81
2022/06/29 11:02:10;;;;;;;6.35;5.72;;;;;;;26.99;51.62;99575.63;4963136;28;20045;-81
2022/06/29 11:04:38;;;;;;;6.82;5.53;;;;;;;27.06;51.70;99567.28;4965351;28;20042;-84
2022/06/29 11:12:54;;;;;;;6.68;5.88;;;;;;;27.18;51.91;99561.75;4951317;28;20089;-86
2022/06/29 11:15:47;;;;;;;8.63;6.32;;;;;;;27.19;50.89;99563.41;4947361;28;20101;-86
2022/06/29 11:18:17;;;;;;;;;;;;;;;27.09;50.66;99563.22;4999769;28;20072;-84
2022/06/29 11:20:48;;;;;;;6.85;5.45;;;;;;;27.32;50.19;99562.22;4969587;28;19960;-84
2022/06/29 11:23:20;;;;;;;6.35;5.75;;;;;;;27.25;50.60;99557.78;4948621;28;20041;-84
2022/06/29 11:25:49;;;;;;;7.30;6.13;;;;;;;27.26;50.88;99559.41;4964179;28;20072;-86
2022/06/29 11:28:17;;;;;;;7.15;6.03;;;;;;;27.32;50.90;99571.22;4967907;28;20046;-84
2022/06/29 11:31:07;;;;;;;6.80;5.35;;;;;;;27.36;50.63;99563.38;4964956;28;20188;-81
2022/06/29 11:33:37;;;;;;;5.88;5.38;;;;;;;27.46;51.01;99558.03;4934968;28;20051;-81
2022/06/29 11:36:06;;;;;;;7.45;5.60;;;;;;;27.51;50.24;99565.47;4982306;28;20046;-81
2022/06/29 11:38:39;;;;;;;8.38;5.70;;;;;;;27.51;50.12;99558.09;4978839;28;20500;-80
2022/06/29 11:41:11;;;;;;;8.32;5.40;;;;;;;27.51;50.02;99557.28;4977747;28;20045;-86
2022/06/29 11:44:05;;;;;;;6.93;6.10;;;;;;;27.52;48.82;99554.28;4966882;28;20133;-86
2022/06/29 11:46:35;;;;;;;6.88;5.43;;;;;;;27.55;49.00;99555.69;4953524;28;20424;-85
2022/06/29 11:51:57;;;;;;;7.13;6.43;;;;;;;27.54;48.81;99543.13;4944911;28;20046;-84
2022/06/29 11:54:34;;;;;;;7.05;5.40;;;;;;;27.54;48.93;99546.69;4938291;28;20050;-83
2022/06/29 11:57:30;;;;;;;7.80;5.47;;;;;;;27.54;48.88;99552.13;4986255;28;20105;-81
2022/06/29 12:00:07;;;;;;;11.73;5.68;;;;;;;27.57;48.52;99550.81;4972299;28;20056;-86
2022/06/29 12:02:35;;;;;;;8.80;6.20;;;;;;;27.63;48.56;99536.13;4965067;28;20122;-85
2022/06/29 12:05:02;;;;;;;11.23;5.68;;;;;;;27.65;49.28;99534.78;4980444;28;20070;-87
2022/06/29 12:07:32;;;;;;;10.95;6.20;;;;;;;27.70;49.33;99523.94;4938804;28;20045;-86
2022/06/29 12:09:59;;;;;;;8.85;5.75;;;;;;;27.77;49.53;99528.41;4934414;28;20046;-82
2022/06/29 12:12:26;;;;;;;7.10;5.47;;;;;;;27.77;49.26;99526.47;4970169;28;20042;-82
2022/06/29 12:14:53;;;;;;;7.78;5.63;;;;;;;27.83;48.74;99530.13;4951403;28;20069;-81
2022/06/29 12:17:20;;;;;;;7.18;5.43;;;;;;;27.76;49.20;99530.31;4965637;28;20580;-82
2022/06/29 12:19:47;;;;;;;6.60;5.22;;;;;;;27.72;49.24;99526.44;4981544;28;20438;-81
2022/06/29 12:22:14;;;;;;;6.35;5.68;;;;;;;27.73;48.50;99517.16;4985384;28;20042;-81
2022/06/29 12:24:41;;;;;;;6.03;4.85;;;;;;;27.70;48.81;99514.94;4964926;28;20116;-87
2022/06/29 12:27:08;;;;;;;5.47;4.50;;;;;;;27.74;48.64;99523.47;4980878;28;20062;-86
2022/06/29 12:29:35;;;;;;;5.68;5.00;;;;;;;27.77;48.30;99521.03;4980503;28;20130;-86
2022/06/29 12:32:02;;;;;;;7.60;5.55;;;;;;;27.88;48.26;99511.06;4996466;28;20116;-80